createdAt,value
2018-02-03T00:02:23.514Z,100428.15
2018-02-03T00:05:06.601Z,100430.09
2018-02-03T00:07:32.504Z,100432.33
2018-02-03T00:10:13.080Z,100422.25
2018-02-03T00:12:48.501Z,100429.23
2018-02-03T00:15:31.334Z,100426.86
2018-02-03T00:18:13.495Z,100422.02
2018-02-03T00:20:39.412Z,100424.80
2018-02-03T00:23:19.932Z,100426.57
2018-02-03T00:25:45.808Z,100420.78
2018-02-03T00:28:26.278Z,100420.09
2018-02-03T00:31:01.212Z,100424.16
2018-02-03T00:33:43.566Z,100422.03
2018-02-03T00:36:25.678Z,100411.58
2018-02-03T00:38:51.521Z,100416.70
2018-02-03T00:41:33.482Z,100417.50
2018-02-03T00:44:17.154Z,100413.50
2018-02-03T00:47:00.471Z,100422.57
2018-02-03T00:49:26.332Z,100423.81
2018-02-03T00:51:52.278Z,100423.63
2018-02-03T00:54:18.125Z,100425.64
2018-02-03T00:56:43.973Z,100427.30
2018-02-03T00:59:09.861Z,100416.47
2018-02-03T01:01:35.796Z,100415.80
2018-02-03T01:04:01.685Z,100419.07
2018-02-03T01:06:27.787Z,100415.05
2018-02-03T01:08:53.726Z,100423.72
2018-02-03T01:11:19.616Z,100422.70
2018-02-03T01:14:01.045Z,100419.53
2018-02-03T01:16:26.890Z,100427.66
2018-02-03T01:18:52.876Z,100423.66
2018-02-03T01:21:18.747Z,100428.08
2018-02-03T01:23:44.598Z,100429.83
2018-02-03T01:26:10.501Z,100433.70
2018-02-03T01:28:36.374Z,100429.08
2018-02-03T01:31:16.532Z,100431.95
2018-02-03T01:33:42.504Z,100435.38
2018-02-03T01:36:08.401Z,100429.30
2018-02-03T01:38:34.308Z,100423.05
2018-02-03T01:41:00.159Z,100427.02
2018-02-03T01:43:26.017Z,100429.73
2018-02-03T01:46:07.782Z,100422.48
2018-02-03T01:48:33.668Z,100420.83
2018-02-03T01:50:59.618Z,100428.97
2018-02-03T01:53:25.513Z,100427.51
2018-02-03T01:55:51.384Z,100428.06
2018-02-03T01:58:17.241Z,100424.93
2018-02-03T02:00:43.121Z,100437.55
2018-02-03T02:03:08.985Z,100445.02
2018-02-03T02:05:34.874Z,100451.97
2018-02-03T02:08:00.768Z,100453.42
2018-02-03T02:10:26.624Z,100455.39
2018-02-03T02:12:52.532Z,100452.61
2018-02-03T02:15:18.384Z,100451.08
2018-02-03T02:17:44.255Z,100450.47
2018-02-03T02:20:10.128Z,100449.91
2018-02-03T02:22:35.981Z,100447.05
2018-02-03T02:25:17.526Z,100440.98
2018-02-03T02:27:43.408Z,100439.88
2018-02-03T02:30:24.357Z,100437.77
2018-02-03T02:32:50.170Z,100440.22
2018-02-03T02:35:16.007Z,100436.64
2018-02-03T02:37:41.897Z,100443.80
2018-02-03T02:40:07.762Z,100441.58
2018-02-03T02:42:33.603Z,100446.32
2018-02-03T02:44:59.488Z,100440.95
2018-02-03T02:47:25.352Z,100445.88
2018-02-03T02:49:52.202Z,100444.56
2018-02-03T02:52:18.078Z,100441.72
2018-02-03T02:54:54.694Z,100449.13
2018-02-03T02:57:20.576Z,100448.77
2018-02-03T02:59:46.474Z,100448.62
2018-02-03T03:02:12.351Z,100449.48
2018-02-03T03:04:38.354Z,100447.52
2018-02-03T03:07:04.202Z,100447.22
2018-02-03T03:09:30.074Z,100444.92
2018-02-03T03:11:55.941Z,100448.89
2018-02-03T03:14:21.812Z,100450.21
2018-02-03T03:16:47.650Z,100454.89
2018-02-03T03:19:13.530Z,100442.53
2018-02-03T03:21:39.362Z,100444.73
2018-02-03T03:24:05.216Z,100446.58
2018-02-03T03:26:31.061Z,100451.75
2018-02-03T03:28:56.913Z,100448.09
2018-02-03T03:31:40.309Z,100442.05
2018-02-03T03:36:47.603Z,100438.03
2018-02-03T03:39:13.446Z,100439.75
2018-02-03T03:41:39.298Z,100436.84
2018-02-03T03:44:06.157Z,100435.38
2018-02-03T03:46:32.010Z,100436.75
2018-02-03T03:48:57.888Z,100433.08
2018-02-03T03:51:23.740Z,100433.55
2018-02-03T03:53:49.620Z,100425.94
2018-02-03T03:56:15.467Z,100429.56
2018-02-03T03:58:41.314Z,100432.25
2018-02-03T04:01:07.170Z,100419.55
2018-02-03T04:03:33.060Z,100419.23
2018-02-03T04:06:14.684Z,100424.83
2018-02-03T04:08:40.579Z,100427.13
2018-02-03T04:11:06.448Z,100425.17
2018-02-03T04:13:32.317Z,100417.46
2018-02-03T04:15:58.210Z,100418.38
2018-02-03T04:18:24.080Z,100426.27
2018-02-03T04:20:49.964Z,100425.36
2018-02-03T04:23:15.825Z,100419.44
2018-02-03T04:25:41.671Z,100408.89
2018-02-03T04:28:08.505Z,100415.19
2018-02-03T04:30:50.992Z,100411.48
2018-02-03T04:33:16.883Z,100413.77
2018-02-03T04:35:57.675Z,100407.91
2018-02-03T04:38:40.315Z,100409.16
2018-02-03T04:41:06.240Z,100408.44
2018-02-03T04:43:33.124Z,100399.98
2018-02-03T04:45:59.066Z,100399.41
2018-02-03T04:48:24.942Z,100398.87
2018-02-03T04:50:50.873Z,100397.52
2018-02-03T04:53:16.718Z,100390.75
2018-02-03T04:55:42.617Z,100381.27
2018-02-03T04:58:08.502Z,100378.73
2018-02-03T05:00:34.401Z,100376.71
2018-02-03T05:03:00.285Z,100387.27
2018-02-03T05:05:26.160Z,100377.81
2018-02-03T05:07:52.104Z,100370.39
2018-02-03T05:10:28.886Z,100380.33
2018-02-03T05:12:55.827Z,100379.69
2018-02-03T05:15:21.718Z,100374.52
2018-02-03T05:17:48.642Z,100376.82
2018-02-03T05:20:15.540Z,100365.60
2018-02-03T05:22:41.436Z,100360.27
2018-02-03T05:25:07.357Z,100354.08
2018-02-03T05:27:33.220Z,100353.30
2018-02-03T05:30:08.754Z,100354.94
2018-02-03T05:32:35.657Z,100346.80
2018-02-03T05:35:02.749Z,100346.18
2018-02-03T05:37:29.675Z,100347.98
2018-02-03T05:39:55.600Z,100345.40
2018-02-03T05:42:38.213Z,100344.25
2018-02-03T05:45:04.090Z,100337.92
2018-02-03T05:47:29.982Z,100343.61
2018-02-03T05:49:55.833Z,100341.78
2018-02-03T05:52:21.696Z,100344.33
2018-02-03T05:54:48.612Z,100348.70
2018-02-03T05:57:15.579Z,100342.94
2018-02-03T05:59:41.435Z,100339.47
2018-02-03T06:02:07.287Z,100340.80
2018-02-03T06:04:33.232Z,100346.73
2018-02-03T06:06:59.169Z,100358.20
2018-02-03T06:09:25.060Z,100354.82
2018-02-03T06:11:52.014Z,100360.48
2018-02-03T06:14:27.379Z,100366.11
2018-02-03T06:16:53.248Z,100357.92
2018-02-03T06:19:19.174Z,100356.73
2018-02-03T06:21:46.242Z,100355.93
2018-02-03T06:24:12.260Z,100360.02
2018-02-03T06:26:38.203Z,100357.92
2018-02-03T06:29:04.128Z,100358.95
2018-02-03T06:31:42.344Z,100353.24
2018-02-03T06:34:08.178Z,100351.63
2018-02-03T06:36:34.064Z,100350.52
2018-02-03T06:38:59.953Z,100346.52
2018-02-03T06:41:26.842Z,100344.41
2018-02-03T06:43:52.758Z,100341.75
2018-02-03T06:46:19.694Z,100350.18
2018-02-03T06:48:58.814Z,100344.88
2018-02-03T06:51:24.680Z,100349.17
2018-02-03T06:53:50.568Z,100346.20
2018-02-03T06:56:16.470Z,100343.31
2018-02-03T06:58:43.406Z,100342.83
2018-02-03T07:01:09.310Z,100345.96
2018-02-03T07:03:35.252Z,100342.95
2018-02-03T07:06:14.782Z,100345.62
2018-02-03T07:08:41.748Z,100348.75
2018-02-03T07:11:07.674Z,100358.53
2018-02-03T07:13:34.669Z,100360.39
2018-02-03T07:16:01.635Z,100359.95
2018-02-03T07:18:27.580Z,100357.55
2018-02-03T07:20:54.474Z,100350.42
2018-02-03T07:23:20.384Z,100348.84
2018-02-03T07:25:46.272Z,100353.02
2018-02-03T07:28:27.559Z,100351.79
2018-02-03T07:31:09.747Z,100359.72
2018-02-03T07:33:35.619Z,100356.26
2018-02-03T07:36:01.508Z,100351.89
2018-02-03T07:38:27.673Z,100354.96
2018-02-03T07:40:53.650Z,100346.51
2018-02-03T07:43:20.597Z,100347.72
2018-02-03T07:45:46.496Z,100348.89
2018-02-03T07:48:12.357Z,100356.16
2018-02-03T07:50:39.270Z,100355.47
2018-02-03T07:53:06.204Z,100357.53
2018-02-03T07:55:32.184Z,100352.50
2018-02-03T07:57:58.043Z,100355.73
2018-02-03T08:00:34.750Z,100355.08
2018-02-03T08:03:00.676Z,100355.09
2018-02-03T08:05:26.652Z,100358.87
2018-02-03T08:07:52.576Z,100362.44
2018-02-03T08:10:18.466Z,100356.02
2018-02-03T08:12:44.388Z,100348.80
2018-02-03T08:15:11.296Z,100352.36
2018-02-03T08:17:38.244Z,100346.78
2018-02-03T08:20:04.965Z,100350.13
2018-02-03T08:22:31.925Z,100345.55
2018-02-03T08:24:58.880Z,100347.58
2018-02-03T08:27:24.798Z,100347.77
2018-02-03T08:30:08.341Z,100340.14
2018-02-03T08:32:51.494Z,100348.06
2018-02-03T08:35:17.421Z,100344.55
2018-02-03T08:37:43.334Z,100346.37
2018-02-03T08:40:09.250Z,100340.29
2018-02-03T08:42:35.180Z,100335.81
2018-02-03T08:45:01.038Z,100331.95
2018-02-03T08:47:26.960Z,100327.97
2018-02-03T08:49:53.852Z,100322.50
2018-02-03T08:52:20.742Z,100324.26
2018-02-03T08:54:47.732Z,100323.62
2018-02-03T08:57:13.699Z,100330.94
2018-02-03T08:59:39.584Z,100334.73
2018-02-03T09:02:05.483Z,100333.31
2018-02-03T09:04:31.405Z,100337.53
2018-02-03T09:06:57.352Z,100324.86
2018-02-03T09:09:37.677Z,100319.20
2018-02-03T09:12:04.668Z,100326.77
2018-02-03T09:14:31.610Z,100320.94
2018-02-03T09:16:57.631Z,100315.27
2018-02-03T09:19:24.635Z,100310.48
2018-02-03T09:21:50.524Z,100309.73
2018-02-03T09:24:16.433Z,100312.63
2018-02-03T09:26:42.334Z,100321.48
2018-02-03T09:29:08.264Z,100322.92
2018-02-03T09:31:50.189Z,100321.77
2018-02-03T09:34:16.073Z,100326.30
2018-02-03T09:36:41.974Z,100319.52
2018-02-03T09:39:07.868Z,100322.83
2018-02-03T09:41:45.117Z,100323.30
2018-02-03T09:44:28.691Z,100317.77
2018-02-03T09:46:55.715Z,100323.84
2018-02-03T09:49:21.659Z,100321.63
2018-02-03T09:51:47.542Z,100322.13
2018-02-03T09:54:13.466Z,100313.42
2018-02-03T09:56:39.342Z,100308.55
2018-02-03T09:59:05.255Z,100302.56
2018-02-03T10:01:31.160Z,100308.37
2018-02-03T10:03:58.110Z,100307.58
2018-02-03T10:06:24.009Z,100302.53
2018-02-03T10:08:51.055Z,100307.41
2018-02-03T10:11:17.043Z,100306.52
2018-02-03T10:13:43.155Z,100307.58
2018-02-03T10:16:09.128Z,100300.82
2018-02-03T10:18:51.424Z,100302.72
2018-02-03T10:21:33.337Z,100298.14
2018-02-03T10:24:00.208Z,100296.28
2018-02-03T10:26:27.098Z,100294.16
2018-02-03T10:28:53.009Z,100296.48
2018-02-03T10:31:27.835Z,100293.58
2018-02-03T10:33:53.720Z,100298.97
2018-02-03T10:36:19.586Z,100299.21
2018-02-03T10:38:46.455Z,100293.14
2018-02-03T10:41:12.354Z,100297.37
2018-02-03T10:43:38.461Z,100294.78
2018-02-03T10:46:05.395Z,100296.36
2018-02-03T10:48:31.297Z,100303.41
2018-02-03T10:53:51.863Z,100292.38
2018-02-03T10:56:18.749Z,100300.39
2018-02-03T10:58:58.801Z,100289.39
2018-02-03T11:01:25.748Z,100290.41
2018-02-03T11:03:52.674Z,100288.80
2018-02-03T11:06:19.648Z,100290.12
2018-02-03T11:08:45.551Z,100281.14
2018-02-03T11:11:11.550Z,100282.53
2018-02-03T11:13:38.563Z,100280.01
2018-02-03T11:16:04.453Z,100280.86
2018-02-03T11:18:30.401Z,100283.55
2018-02-03T11:20:57.304Z,100286.06
2018-02-03T11:23:24.262Z,100282.48
2018-02-03T11:25:50.188Z,100281.95
2018-02-03T11:28:18.140Z,100276.06
2018-02-03T11:30:56.897Z,100270.05
2018-02-03T11:33:32.627Z,100273.19
2018-02-03T11:36:09.278Z,100272.23
2018-02-03T11:38:45.471Z,100269.63
2018-02-03T11:41:27.412Z,100269.83
2018-02-03T11:43:53.366Z,100275.05
2018-02-03T11:46:20.366Z,100274.52
2018-02-03T11:48:47.280Z,100270.41
2018-02-03T11:51:14.280Z,100271.97
2018-02-03T11:53:41.319Z,100268.39
2018-02-03T11:56:08.203Z,100259.83
2018-02-03T11:58:36.241Z,100260.38
2018-02-03T12:01:03.254Z,100256.88
2018-02-03T12:03:29.184Z,100260.89
2018-02-03T12:06:12.842Z,100253.63
2018-02-03T12:08:39.876Z,100258.16
2018-02-03T12:11:05.853Z,100261.28
2018-02-03T12:13:32.791Z,100257.87
2018-02-03T12:15:59.734Z,100254.57
2018-02-03T12:18:25.701Z,100251.11
2018-02-03T12:20:51.564Z,100244.80
2018-02-03T12:23:18.560Z,100239.22
2018-02-03T12:25:44.481Z,100237.87
2018-02-03T12:28:11.408Z,100238.94
2018-02-03T12:30:49.673Z,100235.78
2018-02-03T12:33:15.633Z,100237.62
2018-02-03T12:35:41.594Z,100241.57
2018-02-03T12:38:17.767Z,100230.17
2018-02-03T12:40:56.707Z,100230.16
2018-02-03T12:43:22.705Z,100227.20
2018-02-03T12:45:48.622Z,100222.71
2018-02-03T12:48:15.597Z,100223.61
2018-02-03T12:50:42.562Z,100222.52
2018-02-03T12:53:08.484Z,100217.02
2018-02-03T12:55:34.410Z,100211.41
2018-02-03T12:58:01.359Z,100210.71
2018-02-03T13:00:28.372Z,100215.30
2018-02-03T13:02:55.281Z,100208.69
2018-02-03T13:05:22.185Z,100212.39
2018-02-03T13:07:49.140Z,100200.66
2018-02-03T13:10:15.184Z,100201.52
2018-02-03T13:12:42.184Z,100202.20
2018-02-03T13:15:09.169Z,100202.02
2018-02-03T13:17:51.596Z,100203.53
2018-02-03T13:20:17.492Z,100207.29
2018-02-03T13:22:57.921Z,100203.27
2018-02-03T13:25:24.894Z,100201.71
2018-02-03T13:28:06.582Z,100199.06
2018-02-03T13:30:49.312Z,100191.09
2018-02-03T13:33:31.317Z,100192.19
2018-02-03T13:35:57.487Z,100184.03
2018-02-03T13:38:39.310Z,100188.83
2018-02-03T13:41:22.989Z,100179.31
2018-02-03T13:46:51.544Z,100182.47
2018-02-03T13:49:18.533Z,100181.06
2018-02-03T13:51:44.453Z,100181.47
2018-02-03T13:54:12.555Z,100179.48
2018-02-03T13:56:42.423Z,100175.52
2018-02-03T13:59:22.353Z,100179.91
2018-02-03T14:01:48.275Z,100178.11
2018-02-03T14:04:22.331Z,100176.55
2018-02-03T14:07:02.688Z,100169.83
2018-02-03T14:09:30.687Z,100181.02
2018-02-03T14:11:56.686Z,100183.09
2018-02-03T14:14:29.572Z,100178.52
2018-02-03T14:17:02.822Z,100179.47
2018-02-03T14:19:28.671Z,100176.53
2018-02-03T14:21:54.584Z,100183.83
2018-02-03T14:24:26.668Z,100177.39
2018-02-03T14:26:52.587Z,100177.19
2018-02-03T14:29:31.963Z,100180.96
2018-02-03T14:31:59.927Z,100176.20
2018-02-03T14:34:26.033Z,100178.44
2018-02-03T14:36:52.952Z,100174.72
2018-02-03T14:39:20.909Z,100169.75
2018-02-03T14:41:48.887Z,100170.33
2018-02-03T14:44:16.879Z,100181.31
2018-02-03T14:46:49.029Z,100177.19
2018-02-03T14:49:17.092Z,100177.36
2018-02-03T14:51:53.655Z,100184.14
2018-02-03T14:54:27.085Z,100181.00
2018-02-03T14:57:07.521Z,100181.05
2018-02-03T14:59:33.448Z,100186.63
2018-02-03T15:02:06.452Z,100173.64
2018-02-03T15:04:32.360Z,100177.41
2018-02-03T15:07:00.328Z,100176.98
2018-02-03T15:09:28.270Z,100176.83
2018-02-03T15:11:54.203Z,100172.27
2018-02-03T15:14:20.101Z,100182.61
2018-02-03T15:16:46.034Z,100186.88
2018-02-03T15:19:11.894Z,100188.81
2018-02-03T15:21:37.855Z,100181.89
2018-02-03T15:24:03.884Z,100191.75
2018-02-03T15:26:29.836Z,100190.68
2018-02-03T15:28:55.751Z,100187.62
2018-02-03T15:31:26.719Z,100191.39
2018-02-03T15:33:56.815Z,100187.28
2018-02-03T15:36:27.526Z,100197.97
2018-02-03T15:38:59.765Z,100186.98
2018-02-03T15:41:32.186Z,100190.77
2018-02-03T15:44:10.698Z,100195.19
2018-02-03T15:46:42.972Z,100193.63
2018-02-03T15:49:16.535Z,100193.81
2018-02-03T15:51:42.736Z,100197.91
2018-02-03T15:54:16.219Z,100197.80
2018-02-03T15:56:42.208Z,100195.99
2018-02-03T15:59:12.864Z,100200.75
2018-02-03T16:01:40.745Z,100200.22
2018-02-03T16:04:12.658Z,100196.73
2018-02-03T16:06:42.291Z,100204.30
2018-02-03T16:09:12.598Z,100201.83
2018-02-03T16:11:52.891Z,100201.80
2018-02-03T16:14:18.825Z,100196.26
2018-02-03T16:16:48.854Z,100195.52
2018-02-03T16:19:15.758Z,100196.31
2018-02-03T16:21:46.701Z,100199.05
2018-02-03T16:24:16.237Z,100203.41
2018-02-03T16:26:42.148Z,100207.72
2018-02-03T16:29:13.239Z,100208.70
2018-02-03T16:31:42.816Z,100215.19
2018-02-03T16:34:12.096Z,100211.73
2018-02-03T16:36:37.974Z,100212.74
2018-02-03T16:39:03.924Z,100212.00
2018-02-03T16:41:38.232Z,100213.76
2018-02-03T16:44:04.173Z,100215.83
2018-02-03T16:46:33.149Z,100221.38
2018-02-03T16:48:59.109Z,100224.82
2018-02-03T16:51:43.072Z,100220.10
2018-02-03T16:54:09.094Z,100218.20
2018-02-03T16:56:41.206Z,100223.16
2018-02-03T16:59:16.461Z,100225.09
2018-02-03T17:02:03.645Z,100228.09
2018-02-03T17:04:48.432Z,100230.86
2018-02-03T17:07:29.994Z,100234.85
2018-02-03T17:10:04.565Z,100242.97
2018-02-03T17:12:31.523Z,100234.77
2018-02-03T17:14:57.558Z,100239.22
2018-02-03T17:17:31.517Z,100239.72
2018-02-03T17:20:00.994Z,100245.09
2018-02-03T17:22:30.529Z,100249.61
2018-02-03T17:25:06.806Z,100254.63
2018-02-03T17:27:53.256Z,100255.03
2018-02-03T17:30:20.231Z,100262.64
2018-02-03T17:32:46.462Z,100268.59
2018-02-03T17:35:14.196Z,100269.64
2018-02-03T17:37:46.272Z,100268.92
2018-02-03T17:40:15.198Z,100283.29
2018-02-03T17:42:42.282Z,100280.32
2018-02-03T17:45:18.282Z,100278.14
2018-02-03T17:47:46.178Z,100284.63
2018-02-03T17:50:14.206Z,100278.16
2018-02-03T17:53:00.303Z,100280.63
2018-02-03T17:55:48.227Z,100285.05
2018-02-03T17:58:16.134Z,100282.98
2018-02-03T18:00:46.185Z,100288.97
2018-02-03T18:03:14.198Z,100290.28
2018-02-03T18:05:40.192Z,100288.55
2018-02-03T18:08:06.229Z,100295.83
2018-02-03T18:10:33.179Z,100291.13
2018-02-03T18:13:00.079Z,100298.50
2018-02-03T18:15:26.018Z,100299.42
2018-02-03T18:17:59.019Z,100299.33
2018-02-03T18:20:25.953Z,100297.16
2018-02-03T18:22:52.866Z,100303.93
2018-02-03T18:25:18.769Z,100303.84
2018-02-03T18:27:45.807Z,100303.84
2018-02-03T18:30:18.807Z,100310.83
2018-02-03T18:32:58.001Z,100309.18
2018-02-03T18:35:25.062Z,100309.08
2018-02-03T18:38:06.774Z,100311.75
2018-02-03T18:40:36.486Z,100312.27
2018-02-03T18:43:02.427Z,100315.47
2018-02-03T18:45:41.587Z,100312.49
2018-02-03T18:48:11.569Z,100313.39
2018-02-03T18:50:45.980Z,100312.30
2018-02-03T18:53:13.869Z,100317.50
2018-02-03T18:55:39.718Z,100314.33
2018-02-03T18:58:06.698Z,100314.34
2018-02-03T19:00:32.600Z,100317.30
2018-02-03T19:03:01.928Z,100316.70
2018-02-03T19:05:27.861Z,100329.66
2018-02-03T19:07:53.772Z,100323.77
2018-02-03T19:10:27.945Z,100334.77
2018-02-03T19:12:54.828Z,100325.42
2018-02-03T19:15:36.019Z,100326.03
2018-02-03T19:18:09.916Z,100329.86
2018-02-03T19:20:35.850Z,100335.20
2018-02-03T19:23:08.743Z,100341.06
2018-02-03T19:25:35.684Z,100339.41
2018-02-03T19:28:01.568Z,100342.47
2018-02-03T19:30:27.483Z,100344.62
2018-02-03T19:32:53.322Z,100344.55
2018-02-03T19:35:19.204Z,100351.82
2018-02-03T19:37:45.174Z,100354.00
2018-02-03T19:40:14.513Z,100359.84
2018-02-03T19:42:44.808Z,100361.59
2018-02-03T19:45:29.237Z,100370.09
2018-02-03T19:47:59.225Z,100365.59
2018-02-03T19:50:32.355Z,100362.33
2018-02-03T19:53:04.839Z,100360.74
2018-02-03T19:55:30.772Z,100368.05
2018-02-03T19:57:58.728Z,100363.63
2018-02-03T20:00:24.776Z,100370.52
2018-02-03T20:02:50.782Z,100372.45
2018-02-03T20:05:19.953Z,100369.06
2018-02-03T20:07:49.497Z,100377.08
2018-02-03T20:10:17.465Z,100374.80
2018-02-03T20:12:43.393Z,100379.97
2018-02-03T20:15:09.263Z,100381.47
2018-02-03T20:17:40.728Z,100382.31
2018-02-03T20:20:14.027Z,100382.05
2018-02-03T20:22:39.967Z,100382.86
2018-02-03T20:25:06.940Z,100389.84
2018-02-03T20:27:45.891Z,100393.43
2018-02-03T20:30:15.484Z,100395.25
2018-02-03T20:32:49.848Z,100389.74
2018-02-03T20:35:16.817Z,100393.64
2018-02-03T20:37:50.600Z,100400.31
2018-02-03T20:40:28.294Z,100396.37
2018-02-03T20:42:54.174Z,100400.91
2018-02-03T20:45:20.122Z,100409.81
2018-02-03T20:47:46.062Z,100404.38
2018-02-03T20:50:15.498Z,100410.78
2018-02-03T20:52:41.407Z,100417.56
2018-02-03T20:55:13.141Z,100412.33
2018-02-03T20:57:39.368Z,100418.47
2018-02-03T21:00:06.373Z,100416.39
2018-02-03T21:02:32.330Z,100422.27
2018-02-03T21:04:58.339Z,100423.70
2018-02-03T21:07:26.279Z,100428.31
2018-02-03T21:09:55.941Z,100429.48
2018-02-03T21:15:16.076Z,100438.82
2018-02-03T21:18:07.660Z,100439.94
2018-02-03T21:20:33.529Z,100441.22
2018-02-03T21:23:02.880Z,100438.81
2018-02-03T21:25:28.824Z,100445.98
2018-02-03T21:27:54.814Z,100450.56
2018-02-03T21:30:20.714Z,100451.90
2018-02-03T21:32:50.177Z,100454.47
2018-02-03T21:35:17.107Z,100463.45
2018-02-03T21:37:50.882Z,100468.52
2018-02-03T21:43:09.622Z,100471.07
2018-02-03T21:48:34.521Z,100481.76
2018-02-03T21:51:01.454Z,100480.54
2018-02-03T21:53:48.838Z,100484.94
2018-02-03T21:56:40.380Z,100487.60
2018-02-03T21:59:11.942Z,100496.42
2018-02-03T22:01:39.802Z,100501.31
2018-02-03T22:04:07.770Z,100508.91
2018-02-03T22:06:37.074Z,100521.62
2018-02-03T22:09:04.951Z,100523.94
2018-02-03T22:11:43.776Z,100531.67
2018-02-03T22:14:11.686Z,100542.69
2018-02-03T22:16:48.208Z,100545.83
2018-02-03T22:19:28.958Z,100550.28
2018-02-03T22:22:12.398Z,100557.32
2018-02-03T22:24:45.042Z,100561.44
2018-02-03T22:27:11.041Z,100568.05
2018-02-03T22:29:36.945Z,100579.59
2018-02-03T22:32:07.312Z,100588.25
2018-02-03T22:34:47.296Z,100589.76
2018-02-03T22:37:19.840Z,100597.77
2018-02-03T22:39:45.794Z,100594.70
2018-02-03T22:42:11.654Z,100598.92
2018-02-03T22:44:43.138Z,100610.21
2018-02-03T22:47:10.014Z,100624.98
2018-02-03T22:49:39.125Z,100618.44
2018-02-03T22:52:09.563Z,100630.09
2018-02-03T22:54:37.610Z,100620.75
2018-02-03T22:57:03.522Z,100628.59
2018-02-03T22:59:42.752Z,100627.63
2018-02-03T23:02:16.793Z,100634.80
2018-02-03T23:04:52.732Z,100633.09
2018-02-03T23:07:20.733Z,100635.85
2018-02-03T23:10:04.228Z,100647.97
2018-02-03T23:12:40.910Z,100642.02
2018-02-03T23:15:10.543Z,100651.67
2018-02-03T23:17:43.871Z,100650.82
2018-02-03T23:20:10.801Z,100658.23
2018-02-03T23:22:36.935Z,100661.43
2018-02-03T23:25:02.941Z,100672.05
2018-02-03T23:27:28.805Z,100674.79
2018-02-03T23:29:54.668Z,100681.63
2018-02-03T23:32:20.586Z,100679.68
2018-02-03T23:34:56.618Z,100691.39
2018-02-03T23:37:33.090Z,100705.37
2018-02-03T23:39:58.987Z,100700.16
2018-02-03T23:42:25.153Z,100707.64
2018-02-03T23:44:51.077Z,100713.30
2018-02-03T23:50:09.444Z,100725.36
2018-02-03T23:52:39.450Z,100723.54
2018-02-03T23:55:11.831Z,100728.69
2018-02-03T23:57:38.751Z,100737.35
